Terminal Aerodrome Forecast
Issued by NWS

Home | Current Version | Previous Version | Text Only | Print | Product List | Glossary On
Versions: 1 2 3 4 5 6 7 8 9 10 11 12 13
000
FTUS43 KFGF 251700
TAFDVL
TAF
KDVL 251721Z 2518/2618 29013KT P6SM SKC
     FM260000 VRB04KT P6SM SCT250
     FM260600 13006KT P6SM SCT250
     FM261500 14016G21KT P6SM SCT070 BKN250
      AMD LTD TO CLD VIS AND WIND=

USA.gov is the U.S. government's official web portal to all federal, state and local government web resources and services.